Time;durP1;ratioP1;P1;durP2;ratioP2;P2;SDS_P1;SDS_P2;PMS_P1;PMS_P2;Temp;Humidity;BMP_temperature;BMP_pressure;BME280_temperature;BME280_humidity;BME280_pressure;Samples;Min_cycle;Max_cycle;Signal;HPM_P1;HPM_P2
2022/05/04 00:00:19;;;;;;;21.73;16.00;;;;;;;6.50;89.45;99551.09;4975080;28;20026;-70
2022/05/04 00:02:45;;;;;;;25.00;17.77;;;;;;;6.25;90.44;99567.06;4998510;28;20390;-70
2022/05/04 00:05:11;;;;;;;25.10;18.33;;;;;;;6.14;90.37;99568.38;5009911;28;20026;-70
2022/05/04 00:07:37;;;;;;;23.13;16.98;;;;;;;5.98;91.11;99549.16;4994479;28;20084;-70
2022/05/04 00:10:04;;;;;;;26.95;18.23;;;;;;;6.08;90.91;99561.28;5011847;28;20029;-70
2022/05/04 00:12:30;;;;;;;24.48;15.90;;;;;;;5.90;90.81;99555.38;5012096;28;20496;-70
2022/05/04 00:14:55;;;;;;;29.23;18.92;;;;;;;5.94;90.27;99573.13;4995774;28;20030;-70
2022/05/04 00:17:21;;;;;;;26.40;18.60;;;;;;;5.97;89.74;99566.94;4991803;28;20065;-69
2022/05/04 00:19:47;;;;;;;24.23;15.40;;;;;;;6.11;88.83;99569.81;4992262;28;20464;-70
2022/05/04 00:22:18;;;;;;;20.73;14.60;;;;;;;6.37;88.32;99579.66;4991799;28;20088;-70
2022/05/04 00:24:43;;;;;;;21.23;14.55;;;;;;;6.41;87.34;99586.28;4992212;28;20030;-70
2022/05/04 00:27:09;;;;;;;23.95;15.85;;;;;;;6.42;88.35;99596.28;4973991;28;20061;-70
2022/05/04 00:29:34;;;;;;;27.15;16.13;;;;;;;6.38;88.03;99589.66;4991597;28;20030;-70
2022/05/04 00:32:00;;;;;;;28.25;19.00;;;;;;;6.47;87.61;99585.06;4991987;28;20568;-70
2022/05/04 00:34:26;;;;;;;25.42;18.33;;;;;;;6.46;87.73;99577.84;4992172;28;20085;-70
2022/05/04 00:36:51;;;;;;;24.88;16.77;;;;;;;6.65;87.68;99583.34;4974332;28;20141;-70
2022/05/04 00:39:17;;;;;;;26.73;16.52;;;;;;;6.74;86.39;99584.28;4991831;28;20053;-70
2022/05/04 00:41:42;;;;;;;27.05;16.90;;;;;;;6.25;87.87;99566.28;4993470;28;20540;-69
2022/05/04 00:44:08;;;;;;;25.83;17.67;;;;;;;6.09;89.20;99565.69;4993794;28;20025;-70
2022/05/04 00:46:33;;;;;;;29.95;18.23;;;;;;;5.90;89.78;99572.06;5010501;28;20030;-70
2022/05/04 00:48:59;;;;;;;33.25;18.85;;;;;;;6.04;90.10;99574.94;5011383;28;20064;-69
2022/05/04 00:51:25;;;;;;;29.70;19.88;;;;;;;6.28;89.34;99572.06;4993668;28;20057;-70
2022/05/04 00:53:51;;;;;;;28.98;20.13;;;;;;;6.10;89.25;99570.97;5009214;28;20036;-70
2022/05/04 00:56:16;;;;;;;25.40;19.20;;;;;;;6.02;89.06;99579.97;4993512;28;20025;-69
2022/05/04 00:58:54;;;;;;;31.58;17.67;;;;;;;5.86;89.38;99582.94;5011233;28;20029;-70
2022/05/04 01:01:27;;;;;;;22.95;14.73;;;;;;;5.72;89.88;99573.72;4999763;28;20030;-70
2022/05/04 01:03:58;;;;;;;22.65;14.82;;;;;;;5.72;90.21;99577.31;4991626;28;20026;-70
2022/05/04 01:06:26;;;;;;;25.95;16.08;;;;;;;5.64;90.31;99583.53;4991064;28;20026;-69
2022/05/04 01:08:53;;;;;;;25.52;15.52;;;;;;;5.59;90.32;99578.88;4974216;28;20204;-70
2022/05/04 01:11:19;;;;;;;23.67;15.02;;;;;;;5.68;90.87;99576.28;4991543;28;20022;-69
2022/05/04 01:14:05;;;;;;;21.77;14.88;;;;;;;5.85;90.32;99588.78;4991524;28;20031;-70
2022/05/04 01:16:33;;;;;;;20.45;14.65;;;;;;;6.09;89.15;99585.94;4973713;28;20022;-70
2022/05/04 01:18:58;;;;;;;23.88;14.95;;;;;;;6.24;88.32;99584.06;4973234;28;20034;-70
2022/05/04 01:21:24;;;;;;;20.08;13.50;;;;;;;6.35;87.28;99582.78;4993100;28;20048;-70
2022/05/04 01:23:51;;;;;;;19.98;12.85;;;;;;;6.47;86.64;99587.84;5001403;28;20145;-68
2022/05/04 01:26:18;;;;;;;19.27;13.27;;;;;;;6.48;86.73;99580.34;4999091;28;20062;-69
2022/05/04 01:28:44;;;;;;;18.75;13.45;;;;;;;6.32;86.75;99573.09;4997861;28;20092;-70
2022/05/04 01:31:10;;;;;;;19.58;13.05;;;;;;;6.29;87.48;99562.59;4997809;28;20114;-70
2022/05/04 01:33:36;;;;;;;21.13;14.52;;;;;;;6.30;87.99;99560.63;4997896;28;20030;-70
2022/05/04 01:36:02;;;;;;;19.75;12.15;;;;;;;6.25;88.21;99567.06;4996687;28;20116;-69
2022/05/04 01:38:27;;;;;;;18.02;12.00;;;;;;;6.52;87.46;99561.91;5004224;28;20046;-70
2022/05/04 01:40:53;;;;;;;18.88;13.35;;;;;;;6.58;87.36;99563.47;5016529;28;20068;-71
2022/05/04 01:43:18;;;;;;;19.55;12.60;;;;;;;6.38;87.92;99568.25;5017267;28;20026;-70
2022/05/04 01:45:44;;;;;;;19.00;12.98;;;;;;;6.58;86.88;99580.97;5008076;28;20092;-69
2022/05/04 01:48:10;;;;;;;17.95;11.98;;;;;;;6.81;86.46;99572.78;5012932;28;20022;-70
2022/05/04 01:50:36;;;;;;;16.17;11.52;;;;;;;6.91;85.54;99573.72;5017286;28;20049;-70
2022/05/04 01:53:02;;;;;;;16.58;11.73;;;;;;;7.09;84.33;99580.31;5015675;28;20386;-69
2022/05/04 01:55:32;;;;;;;15.02;10.77;;;;;;;7.26;83.91;99576.91;5003112;28;20057;-70
2022/05/04 01:57:57;;;;;;;13.03;10.00;;;;;;;7.36;82.68;99573.06;4997462;28;20034;-70
2022/05/04 02:00:23;;;;;;;13.35;10.88;;;;;;;7.34;81.83;99575.34;4997173;28;20461;-70
2022/05/04 02:02:49;;;;;;;12.85;10.23;;;;;;;7.43;81.83;99577.09;4997555;28;20046;-70
2022/05/04 02:05:16;;;;;;;13.63;9.85;;;;;;;7.69;80.46;99579.28;4997679;28;20026;-71
2022/05/04 02:07:43;;;;;;;15.57;9.95;;;;;;;7.80;79.35;99579.06;5014987;28;20412;-70
2022/05/04 02:10:09;;;;;;;14.32;10.27;;;;;;;7.75;79.51;99568.88;5017083;28;20454;-70
2022/05/04 02:12:35;;;;;;;15.05;10.02;;;;;;;7.55;79.65;99584.06;4998278;28;20033;-69
2022/05/04 02:15:01;;;;;;;16.02;10.48;;;;;;;7.57;79.75;99581.81;4997501;28;20473;-70
2022/05/04 02:17:26;;;;;;;19.45;11.02;;;;;;;7.23;80.25;99578.34;5011553;28;20471;-70
2022/05/04 02:19:52;;;;;;;16.13;9.27;;;;;;;7.22;80.85;99579.47;4999444;28;20018;-70
2022/05/04 02:22:18;;;;;;;18.55;10.23;;;;;;;7.40;80.14;99583.28;4997273;28;20105;-70
2022/05/04 02:24:44;;;;;;;12.40;9.05;;;;;;;7.39;80.21;99566.88;4996486;28;20523;-70
2022/05/04 02:27:09;;;;;;;17.25;9.45;;;;;;;7.41;79.71;99562.66;4987557;28;20018;-70
2022/05/04 02:29:35;;;;;;;19.60;10.52;;;;;;;7.20;80.59;99565.06;4997562;28;20116;-70
2022/05/04 02:32:00;;;;;;;12.60;9.02;;;;;;;7.27;80.57;99550.72;5007134;28;20080;-69
2022/05/04 02:34:26;;;;;;;14.00;9.52;;;;;;;7.41;80.54;99562.66;5008093;28;20099;-70
2022/05/04 02:39:36;;;;;;;11.32;8.40;;;;;;;7.25;79.81;99550.22;5013775;28;20061;-69
2022/05/04 02:42:01;;;;;;;13.93;8.38;;;;;;;7.37;79.64;99549.69;5007894;28;20030;-70
2022/05/04 02:44:27;;;;;;;11.82;8.32;;;;;;;7.29;79.92;99557.59;4994002;28;20155;-70
2022/05/04 02:46:52;;;;;;;14.30;8.65;;;;;;;7.47;79.01;99560.59;4993912;28;20652;-70
2022/05/04 02:49:18;;;;;;;8.82;7.43;;;;;;;6.68;81.59;99566.03;4976342;28;20029;-70
2022/05/04 02:51:44;;;;;;;19.38;9.45;;;;;;;6.42;83.89;99565.72;4993770;28;20058;-70
2022/05/04 02:54:10;;;;;;;16.15;10.18;;;;;;;6.72;83.29;99571.81;5000269;28;20096;-70
2022/05/04 02:56:35;;;;;;;17.25;9.82;;;;;;;6.99;82.56;99571.03;4979005;28;20038;-70
2022/05/04 02:59:01;;;;;;;20.77;12.30;;;;;;;6.29;83.39;99562.59;5008860;28;20080;-69
2022/05/04 03:04:10;;;;;;;20.73;12.93;;;;;;;6.02;84.68;99561.34;4993709;28;20025;-69
2022/05/04 03:06:39;;;;;;;22.95;13.32;;;;;;;6.46;83.68;99566.72;5004388;28;20029;-69
2022/05/04 03:09:05;;;;;;;21.25;14.38;;;;;;;6.57;82.79;99575.69;5004369;28;20026;-70
2022/05/04 03:14:17;;;;;;;25.73;14.90;;;;;;;5.66;86.14;99586.81;4993523;28;20109;-69
2022/05/04 03:16:43;;;;;;;24.17;15.55;;;;;;;5.56;86.31;99589.78;4976056;28;20085;-70
2022/05/04 03:19:08;;;;;;;28.13;15.30;;;;;;;5.43;87.50;99602.41;5010913;28;20480;-69
2022/05/04 03:21:34;;;;;;;27.85;16.98;;;;;;;5.17;88.09;99600.78;5000307;28;20023;-69
2022/05/04 03:24:01;;;;;;;43.33;23.35;;;;;;;5.05;89.27;99603.97;4993201;28;20022;-69
2022/05/04 03:26:27;;;;;;;30.33;17.85;;;;;;;4.93;89.73;99609.09;4975694;28;20022;-72
2022/05/04 03:28:53;;;;;;;26.25;15.80;;;;;;;4.79;89.71;99606.19;5007002;28;20053;-72
2022/05/04 03:31:19;;;;;;;27.45;15.90;;;;;;;4.73;91.08;99608.19;5007459;28;20023;-72
2022/05/04 03:33:45;;;;;;;37.15;23.10;;;;;;;4.74;91.10;99604.28;4991222;28;20381;-71
2022/05/04 03:36:10;;;;;;;30.08;21.63;;;;;;;4.75;91.15;99603.16;4996350;28;20030;-72
2022/05/04 03:38:36;;;;;;;28.33;17.08;;;;;;;4.84;90.77;99608.94;5012207;28;20050;-72
2022/05/04 03:41:02;;;;;;;26.88;15.15;;;;;;;4.82;90.93;99615.88;4991880;28;20034;-72
2022/05/04 03:43:28;;;;;;;28.83;19.33;;;;;;;4.81;89.99;99623.34;4991585;28;20050;-72
2022/05/04 03:45:54;;;;;;;30.98;20.27;;;;;;;4.76;90.14;99626.19;4992249;28;20428;-72
2022/05/04 03:48:20;;;;;;;30.73;19.15;;;;;;;4.91;89.76;99619.66;4992948;28;20524;-72
2022/05/04 03:50:46;;;;;;;25.70;18.13;;;;;;;5.16;89.32;99614.94;4975400;28;20509;-72
2022/05/04 03:53:13;;;;;;;25.65;15.15;;;;;;;5.47;88.13;99618.19;4975348;28;20120;-72
2022/05/04 03:55:38;;;;;;;26.63;14.82;;;;;;;5.67;86.82;99616.25;4992770;28;20386;-72
2022/05/04 03:58:04;;;;;;;26.67;14.57;;;;;;;5.85;86.39;99627.66;4992217;28;20080;-72
2022/05/04 04:00:30;;;;;;;21.42;13.43;;;;;;;6.11;85.65;99624.53;4992212;28;20417;-72
2022/05/04 04:02:55;;;;;;;24.67;13.88;;;;;;;6.26;85.09;99629.03;4975379;28;20030;-72
2022/05/04 04:05:23;;;;;;;21.25;13.60;;;;;;;6.34;84.51;99628.34;4996748;28;20033;-72
2022/05/04 04:07:49;;;;;;;22.45;13.57;;;;;;;6.21;85.18;99631.88;5011768;28;20209;-71
2022/05/04 04:10:15;;;;;;;19.25;12.50;;;;;;;6.47;84.84;99623.97;5004474;28;20101;-72
2022/05/04 04:12:40;;;;;;;21.83;12.65;;;;;;;6.51;84.19;99630.53;5011967;28;20523;-73
2022/05/04 04:15:06;;;;;;;17.25;12.80;;;;;;;6.73;83.37;99642.97;5011851;28;20020;-73
2022/05/04 04:17:31;;;;;;;27.92;13.73;;;;;;;6.80;82.91;99648.97;5003069;28;20088;-73
2022/05/04 04:22:41;;;;;;;20.95;12.98;;;;;;;6.80;83.62;99654.53;5006163;28;20069;-72
2022/05/04 04:25:07;;;;;;;28.08;13.48;;;;;;;7.01;83.83;99654.97;4974730;28;20057;-73
2022/05/04 04:27:34;;;;;;;38.97;21.45;;;;;;;7.12;83.27;99655.63;4976748;28;20547;-72
2022/05/04 04:30:00;;;;;;;33.55;18.48;;;;;;;7.40;83.48;99650.06;4987396;28;20498;-73
2022/05/04 04:32:26;;;;;;;24.23;12.60;;;;;;;7.72;81.77;99653.88;5011685;28;20053;-73
2022/05/04 04:34:51;;;;;;;14.38;10.25;;;;;;;7.89;80.17;99655.19;5011146;28;20022;-72
2022/05/04 04:37:17;;;;;;;16.90;10.48;;;;;;;8.19;80.22;99646.44;5008119;28;20551;-72
2022/05/04 04:39:42;;;;;;;18.05;10.23;;;;;;;8.16;79.07;99647.88;5001969;28;20037;-72
2022/05/04 04:42:08;;;;;;;12.57;8.38;;;;;;;8.19;78.80;99649.22;4992721;28;20128;-73
2022/05/04 04:44:33;;;;;;;13.45;8.75;;;;;;;8.37;77.71;99641.81;5003227;28;20042;-72
2022/05/04 04:46:59;;;;;;;17.10;9.98;;;;;;;8.46;77.36;99644.69;5007546;28;20022;-73
2022/05/04 04:49:25;;;;;;;18.23;9.32;;;;;;;8.43;76.13;99648.91;4984300;28;20413;-71
2022/05/04 04:51:51;;;;;;;18.00;8.40;;;;;;;8.32;75.35;99636.34;4974002;28;20057;-73
2022/05/04 04:54:17;;;;;;;10.45;8.75;;;;;;;8.40;76.65;99652.34;4985986;28;20108;-72
2022/05/04 04:56:43;;;;;;;18.92;11.40;;;;;;;8.39;76.12;99647.91;4987405;28;20532;-73
2022/05/04 04:59:08;;;;;;;14.68;10.65;;;;;;;8.43;78.02;99654.47;5001070;28;20030;-75
2022/05/04 05:01:34;;;;;;;11.82;8.43;;;;;;;8.21;77.65;99660.88;5009234;28;20059;-77
2022/05/04 05:04:00;;;;;;;14.27;8.10;;;;;;;8.14;77.52;99658.53;4992922;28;20026;-73
2022/05/04 05:06:25;;;;;;;14.13;9.55;;;;;;;8.19;78.75;99647.25;4979125;28;20461;-77
2022/05/04 05:08:51;;;;;;;21.35;10.30;;;;;;;8.29;79.40;99629.47;4993108;28;20026;-76
2022/05/04 05:11:16;;;;;;;18.83;9.27;;;;;;;8.25;78.71;99643.22;4975392;28;20034;-76
2022/05/04 05:16:26;;;;;;;22.85;9.95;;;;;;;8.33;78.65;99651.97;4991696;28;20504;-74
2022/05/04 05:18:52;;;;;;;13.32;7.72;;;;;;;8.18;77.90;99656.75;4977777;28;20034;-76
2022/05/04 05:21:18;;;;;;;17.38;10.77;;;;;;;8.24;78.91;99651.88;4990444;28;20034;-74
2022/05/04 05:23:43;;;;;;;17.75;8.93;;;;;;;8.29;78.59;99649.78;4999176;28;20029;-72
2022/05/04 05:26:09;;;;;;;21.00;9.80;;;;;;;8.38;79.00;99649.84;4989571;28;20489;-75
2022/05/04 05:28:34;;;;;;;24.67;10.43;;;;;;;8.34;79.59;99650.84;4988367;28;20058;-73
2022/05/04 05:31:01;;;;;;;19.85;9.23;;;;;;;8.19;79.46;99640.88;4991840;28;20488;-74
2022/05/04 05:33:26;;;;;;;19.80;8.65;;;;;;;8.10;78.95;99649.97;4973259;28;20030;-74
2022/05/04 05:35:52;;;;;;;14.02;8.35;;;;;;;8.12;79.50;99656.03;4990072;28;20032;-74
2022/05/04 05:38:17;;;;;;;21.83;10.10;;;;;;;7.97;80.27;99648.03;4991445;28;20030;-73
2022/05/04 05:40:43;;;;;;;21.27;10.52;;;;;;;7.86;81.21;99645.47;4991796;28;20194;-74
2022/05/04 05:43:09;;;;;;;18.65;11.13;;;;;;;7.89;81.65;99652.38;4991860;28;20496;-75
2022/05/04 05:45:34;;;;;;;23.65;12.95;;;;;;;7.89;82.13;99655.19;4992619;28;20029;-72
2022/05/04 05:48:00;;;;;;;25.35;13.65;;;;;;;7.95;82.94;99656.69;5005582;28;20117;-71
2022/05/04 05:50:25;;;;;;;21.85;11.65;;;;;;;7.96;82.78;99655.59;4991805;28;20134;-75
2022/05/04 05:52:51;;;;;;;30.80;12.30;;;;;;;7.95;81.58;99659.47;4978800;28;20037;-74
2022/05/04 05:55:16;;;;;;;21.83;11.75;;;;;;;8.05;82.21;99649.25;4996228;28;20061;-74
2022/05/04 05:57:42;;;;;;;20.75;11.38;;;;;;;8.01;83.15;99647.09;4994089;28;20061;-74
2022/05/04 06:00:08;;;;;;;21.48;11.73;;;;;;;8.05;82.89;99643.69;4989845;28;20061;-74
2022/05/04 06:02:34;;;;;;;18.92;11.93;;;;;;;8.26;84.35;99639.28;4973217;28;20073;-75
2022/05/04 06:04:59;;;;;;;24.08;13.52;;;;;;;8.40;83.46;99638.41;4990722;28;20528;-75
2022/05/04 06:07:25;;;;;;;24.02;11.88;;;;;;;8.52;82.77;99646.25;4985080;28;20046;-77
2022/05/04 06:09:50;;;;;;;17.95;11.05;;;;;;;8.64;82.94;99640.06;4996102;28;20066;-76
2022/05/04 06:12:16;;;;;;;19.60;11.30;;;;;;;8.70;81.84;99628.47;4977335;28;20173;-72
2022/05/04 06:14:41;;;;;;;15.40;9.57;;;;;;;8.85;80.92;99641.19;4979576;28;20034;-77
2022/05/04 06:17:07;;;;;;;18.15;11.30;;;;;;;8.98;79.27;99638.63;4996041;28;20022;-76
2022/05/04 06:19:32;;;;;;;38.17;12.88;;;;;;;9.08;77.29;99643.13;4985613;28;20030;-78
2022/05/04 06:21:58;;;;;;;76.03;14.85;;;;;;;9.28;78.69;99641.72;4994481;28;20378;-76
2022/05/04 06:24:26;;;;;;;136.00;16.70;;;;;;;9.44;76.80;99646.88;4976953;28;20465;-76
2022/05/04 06:26:52;;;;;;;17.58;9.93;;;;;;;9.52;76.85;99640.50;5000038;28;20485;-77
2022/05/04 06:29:17;;;;;;;25.20;10.27;;;;;;;9.58;77.20;99638.38;4994937;28;20313;-76
2022/05/04 06:34:27;;;;;;;37.65;10.57;;;;;;;9.85;76.42;99633.69;4994647;28;20088;-75
2022/05/04 06:36:52;;;;;;;12.70;8.02;;;;;;;9.91;74.48;99630.41;4997680;28;20437;-77
2022/05/04 06:39:18;;;;;;;20.98;8.95;;;;;;;9.97;73.39;99629.09;5000568;28;20082;-75
2022/05/04 06:41:43;;;;;;;13.85;7.93;;;;;;;10.11;73.72;99628.94;4997105;28;20401;-77
2022/05/04 06:44:09;;;;;;;15.98;8.70;;;;;;;10.29;73.55;99628.94;5000915;28;20091;-75
2022/05/04 06:46:41;;;;;;;8.38;6.57;;;;;;;10.42;72.33;99638.34;5004271;28;20409;-73
2022/05/04 06:49:09;;;;;;;21.02;8.40;;;;;;;10.42;71.35;99634.72;4994074;28;20409;-75
2022/05/04 06:51:35;;;;;;;24.30;10.68;;;;;;;10.46;71.14;99639.31;5011043;28;20036;-73
2022/05/04 06:54:00;;;;;;;27.48;8.65;;;;;;;10.42;70.31;99632.75;4988916;28;20022;-72
2022/05/04 06:56:26;;;;;;;17.58;7.03;;;;;;;10.56;70.74;99642.94;4993827;28;20034;-70
2022/05/04 06:58:51;;;;;;;11.15;7.47;;;;;;;10.53;71.77;99636.03;4998910;28;20504;-80
2022/05/04 07:01:17;;;;;;;13.55;7.97;;;;;;;10.43;69.83;99641.94;5005270;28;20046;-77
2022/05/04 07:03:42;;;;;;;10.10;7.85;;;;;;;10.31;70.79;99640.59;4994310;28;20022;-76
2022/05/04 07:06:08;;;;;;;14.10;8.43;;;;;;;10.37;71.58;99636.50;4979495;28;20025;-75
2022/05/04 07:08:34;;;;;;;17.83;8.20;;;;;;;10.53;72.44;99641.63;5012903;28;20049;-73
2022/05/04 07:11:00;;;;;;;17.00;8.90;;;;;;;10.47;72.70;99640.97;4985844;28;20026;-75
2022/05/04 07:13:27;;;;;;;24.38;9.88;;;;;;;10.51;73.21;99635.53;5004955;28;20029;-79
2022/05/04 07:15:53;;;;;;;17.15;10.85;;;;;;;10.56;74.53;99631.75;5000645;28;20408;-73
2022/05/04 07:18:18;;;;;;;13.32;9.82;;;;;;;10.65;74.82;99629.78;5009753;28;20124;-76
2022/05/04 07:20:44;;;;;;;26.30;10.05;;;;;;;10.55;71.86;99621.72;5002969;28;20030;-78
2022/05/04 07:23:10;;;;;;;19.13;9.60;;;;;;;10.61;73.42;99615.63;5007079;28;20564;-84
2022/05/04 07:25:35;;;;;;;13.30;9.05;;;;;;;10.69;73.90;99619.56;5004106;28;20417;-79
2022/05/04 07:28:01;;;;;;;20.40;10.68;;;;;;;10.75;73.63;99612.63;5003364;28;20483;-77
2022/05/04 07:30:26;;;;;;;15.82;9.10;;;;;;;10.87;75.01;99616.72;5001126;28;20022;-74
2022/05/04 07:32:52;;;;;;;10.85;8.00;;;;;;;10.75;71.08;99618.22;4999998;28;20112;-75
2022/05/04 07:35:17;;;;;;;19.60;8.43;;;;;;;10.72;72.29;99618.88;4994242;28;20025;-77
2022/05/04 07:37:44;;;;;;;12.57;9.98;;;;;;;10.86;74.40;99631.84;5011198;28;20492;-78
2022/05/04 07:42:55;;;;;;;16.00;9.95;;;;;;;11.05;73.98;99640.69;4995443;28;20037;-75
2022/05/04 07:45:20;;;;;;;14.18;8.23;;;;;;;11.06;73.48;99638.72;4994827;28;20026;-75
2022/05/04 07:47:46;;;;;;;13.80;9.13;;;;;;;11.22;73.93;99644.56;5012271;28;20116;-76
2022/05/04 07:50:12;;;;;;;14.00;7.95;;;;;;;11.32;72.58;99632.19;5010916;28;20033;-79
2022/05/04 07:52:38;;;;;;;14.18;7.78;;;;;;;11.30;71.85;99632.53;5002642;28;20040;-77
2022/05/04 07:55:05;;;;;;;12.40;7.25;;;;;;;11.46;71.71;99637.56;4988463;28;20033;-75
2022/05/04 07:57:31;;;;;;;26.33;9.50;;;;;;;11.62;68.50;99638.66;4992384;28;20038;-72
2022/05/04 08:05:31;;;;;;;12.23;5.68;;;;;;;12.03;65.35;99636.28;5007788;28;20097;-77
2022/05/04 08:07:56;;;;;;;9.60;5.30;;;;;;;12.12;65.42;99633.41;4974564;28;20109;-78
2022/05/04 08:10:22;;;;;;;11.35;6.50;;;;;;;12.20;64.90;99631.69;4975077;28;20493;-76
2022/05/04 08:12:48;;;;;;;7.57;5.20;;;;;;;12.36;64.76;99631.88;5002931;28;20050;-79
2022/05/04 08:15:13;;;;;;;8.98;5.55;;;;;;;12.64;63.67;99628.50;5006970;28;20482;-74
2022/05/04 08:17:39;;;;;;;10.15;5.40;;;;;;;12.77;60.15;99624.56;4996921;28;20037;-79
2022/05/04 08:20:05;;;;;;;11.77;5.25;;;;;;;12.72;58.72;99621.97;4989473;28;20038;-80
2022/05/04 08:22:30;;;;;;;8.32;5.35;;;;;;;13.02;61.41;99615.38;5006162;28;20453;-77
2022/05/04 08:24:56;;;;;;;10.07;5.00;;;;;;;13.26;60.54;99622.22;4994251;28;20059;-81
2022/05/04 08:27:22;;;;;;;10.93;5.70;;;;;;;13.56;59.02;99630.44;4993583;28;20029;-75
2022/05/04 08:29:47;;;;;;;10.95;4.45;;;;;;;13.80;56.85;99628.78;4993441;28;20022;-79
2022/05/04 08:32:13;;;;;;;8.00;5.55;;;;;;;13.62;55.55;99629.03;4983845;28;20073;-76
2022/05/04 08:34:39;;;;;;;5.53;4.53;;;;;;;13.72;57.10;99633.34;4999749;28;20029;-79
2022/05/04 08:37:05;;;;;;;8.07;4.22;;;;;;;13.82;54.95;99621.63;4989937;28;20413;-79
2022/05/04 08:39:31;;;;;;;3.28;2.97;;;;;;;13.87;51.30;99621.38;5005307;28;20053;-79
2022/05/04 08:41:58;;;;;;;3.67;2.97;;;;;;;14.11;49.63;99616.88;5004693;28;20471;-78
2022/05/04 08:44:24;;;;;;;3.95;3.20;;;;;;;14.18;50.03;99616.31;4992729;28;20030;-76
2022/05/04 08:46:51;;;;;;;6.30;2.83;;;;;;;14.21;51.26;99620.38;4995225;28;20419;-76
2022/05/04 08:49:19;;;;;;;11.68;3.53;;;;;;;14.38;52.09;99617.28;4989886;28;20029;-76
2022/05/04 08:51:48;;;;;;;8.90;4.50;;;;;;;14.55;54.16;99604.09;4996014;28;20022;-76
2022/05/04 08:54:14;;;;;;;11.48;5.43;;;;;;;14.69;52.80;99607.28;5002397;28;20033;-77
2022/05/04 08:56:40;;;;;;;6.85;3.72;;;;;;;14.91;52.17;99605.09;5011912;28;20405;-79
2022/05/04 08:59:07;;;;;;;6.40;3.72;;;;;;;15.09;52.47;99604.75;5009089;28;20018;-79
2022/05/04 09:01:36;;;;;;;7.97;3.72;;;;;;;15.06;49.41;99608.28;4993342;28;20048;-77
2022/05/04 09:04:03;;;;;;;6.32;3.33;;;;;;;14.93;49.89;99605.53;4991773;28;20038;-76
2022/05/04 09:06:30;;;;;;;3.92;2.97;;;;;;;14.90;49.36;99606.28;4990253;28;20049;-77
2022/05/04 09:09:08;;;;;;;10.35;2.75;;;;;;;15.20;48.95;99597.38;4989347;28;20085;-74
2022/05/04 09:11:42;;;;;;;2.60;2.40;;;;;;;15.50;49.11;99599.75;4972613;28;20034;-77
2022/05/04 09:14:15;;;;;;;4.30;2.80;;;;;;;15.41;46.48;99591.47;5004758;28;20496;-78
2022/05/04 09:16:41;;;;;;;6.03;2.97;;;;;;;15.80;51.01;99585.13;4988471;28;20527;-75
2022/05/04 09:19:12;;;;;;;3.78;2.72;;;;;;;16.10;49.37;99581.78;4994865;28;20062;-73
2022/05/04 09:21:39;;;;;;;12.02;3.03;;;;;;;16.30;47.77;99583.81;4993872;28;20026;-73
2022/05/04 09:24:05;;;;;;;4.05;3.08;;;;;;;16.45;45.66;99590.56;4992077;28;20022;-73
2022/05/04 09:26:32;;;;;;;4.25;2.22;;;;;;;16.17;45.40;99580.28;5009307;28;20080;-73
2022/05/04 09:29:04;;;;;;;3.88;2.65;;;;;;;16.24;46.20;99584.13;5000955;28;20354;-73
2022/05/04 09:31:31;;;;;;;4.70;2.42;;;;;;;16.44;45.91;99580.47;4980758;28;20186;-72
2022/05/04 09:33:59;;;;;;;5.80;2.60;;;;;;;16.54;45.55;99585.50;5005131;28;20488;-76
2022/05/04 09:36:35;;;;;;;5.38;2.80;;;;;;;16.54;45.41;99577.84;5000938;28;20113;-75
2022/05/04 09:44:54;;;;;;;7.35;3.15;;;;;;;16.43;44.62;99562.69;5010519;28;20456;-73
2022/05/04 09:47:21;;;;;;;4.97;3.70;;;;;;;16.53;43.68;99567.75;5015224;28;20101;-73
2022/05/04 09:49:48;;;;;;;4.63;3.35;;;;;;;16.65;44.85;99557.47;4981897;28;20130;-72
2022/05/04 09:52:15;;;;;;;8.55;4.18;;;;;;;16.60;45.78;99560.63;4996302;28;20513;-70
2022/05/04 09:54:41;;;;;;;5.68;3.35;;;;;;;16.58;46.84;99554.50;4997504;28;20026;-72
2022/05/04 09:57:07;;;;;;;5.72;3.65;;;;;;;16.64;44.50;99544.56;5004693;28;20415;-71
2022/05/04 09:59:36;;;;;;;8.60;3.58;;;;;;;16.74;44.61;99538.28;5001059;28;20417;-72
2022/05/04 10:02:07;;;;;;;2.80;2.55;;;;;;;16.96;44.87;99541.50;5012081;28;20025;-73
2022/05/04 10:04:34;;;;;;;6.53;2.67;;;;;;;16.97;45.46;99543.94;5007029;28;20022;-73
2022/05/04 10:07:03;;;;;;;5.57;2.78;;;;;;;17.17;44.35;99529.78;4989487;28;20022;-73
2022/05/04 10:09:29;;;;;;;4.82;3.00;;;;;;;17.41;42.71;99539.03;4998589;28;20025;-70
2022/05/04 10:11:58;;;;;;;4.40;2.50;;;;;;;17.62;41.92;99530.03;5005267;28;20029;-72
2022/05/04 10:14:26;;;;;;;4.75;2.10;;;;;;;17.92;40.78;99528.44;5005749;28;20116;-73
2022/05/04 10:17:30;;;;;;;3.53;2.80;;;;;;;18.10;39.98;99528.69;4998106;28;20126;-72
2022/05/04 10:20:11;;;;;;;3.53;2.53;;;;;;;18.10;37.06;99523.84;4939526;28;20050;-72
2022/05/04 10:22:59;;;;;;;5.00;2.90;;;;;;;18.31;36.59;99521.66;4984857;28;20536;-72
2022/05/04 10:25:26;;;;;;;7.20;3.25;;;;;;;18.60;35.72;99517.13;5010714;28;20555;-72
2022/05/04 10:28:04;;;;;;;4.95;2.90;;;;;;;18.65;36.10;99519.59;4992142;28;20040;-72
2022/05/04 10:30:30;;;;;;;4.90;3.13;;;;;;;18.78;35.93;99500.31;4993220;28;20038;-72
2022/05/04 10:33:06;;;;;;;3.65;2.53;;;;;;;18.74;34.25;99510.78;4989524;28;20463;-72
2022/05/04 10:35:40;;;;;;;5.38;3.05;;;;;;;18.85;34.83;99502.41;4999968;28;20382;-72
2022/05/04 10:38:28;;;;;;;7.20;2.55;;;;;;;19.01;35.37;99504.16;4998126;28;20520;-71
2022/05/04 10:40:57;;;;;;;2.90;2.60;;;;;;;19.08;35.21;99504.25;5010473;28;20179;-73
2022/05/04 10:43:45;;;;;;;9.48;3.05;;;;;;;19.20;34.75;99500.28;4994882;28;20096;-73
2022/05/04 10:46:13;;;;;;;7.28;3.22;;;;;;;19.33;33.33;99497.94;5003658;28;20042;-73
2022/05/04 10:48:59;;;;;;;5.25;2.65;;;;;;;19.28;35.83;99490.63;5002696;28;20022;-72
2022/05/04 10:51:36;;;;;;;8.27;2.90;;;;;;;19.21;33.65;99494.22;4989531;28;20083;-73
2022/05/04 10:54:17;;;;;;;7.47;2.63;;;;;;;19.22;34.30;99490.16;5012064;28;20018;-72
2022/05/04 10:56:46;;;;;;;8.73;3.47;;;;;;;19.28;34.60;99481.28;4993715;28;20121;-72
2022/05/04 10:59:13;;;;;;;3.70;3.30;;;;;;;19.35;35.65;99482.13;4993521;28;20465;-72
2022/05/04 11:01:40;;;;;;;4.15;3.00;;;;;;;19.26;35.34;99472.38;5003713;28;20036;-73
2022/05/04 11:04:11;;;;;;;3.65;3.00;;;;;;;19.32;35.15;99477.28;4992738;28;20030;-72
2022/05/04 11:06:58;;;;;;;5.50;3.20;;;;;;;19.57;35.71;99470.94;4998589;28;20030;-71
2022/05/04 11:09:31;;;;;;;3.60;3.00;;;;;;;19.62;32.48;99466.91;4989757;28;20038;-72
2022/05/04 11:11:59;;;;;;;3.67;2.70;;;;;;;20.08;35.33;99464.72;5009854;28;20466;-74
2022/05/04 11:14:26;;;;;;;4.05;2.70;;;;;;;19.88;34.71;99467.84;4990832;28;20029;-73
2022/05/04 11:16:54;;;;;;;7.57;2.80;;;;;;;20.04;33.96;99461.84;4978751;28;20134;-72
2022/05/04 11:19:23;;;;;;;5.18;3.00;;;;;;;19.96;34.48;99454.50;4999655;28;20030;-73
2022/05/04 11:21:49;;;;;;;2.90;2.60;;;;;;;19.82;32.81;99461.72;4988091;28;20540;-72
2022/05/04 11:24:16;;;;;;;3.13;2.60;;;;;;;20.05;33.79;99452.94;4999892;28;20045;-73
2022/05/04 11:26:46;;;;;;;2.60;2.40;;;;;;;20.13;35.20;99455.78;4984953;28;20520;-72
2022/05/04 11:29:16;;;;;;;3.30;3.00;;;;;;;20.11;33.61;99456.22;5007050;28;20022;-73
2022/05/04 11:32:03;;;;;;;5.47;2.55;;;;;;;20.33;33.24;99447.72;4983669;28;20037;-73
2022/05/04 11:34:31;;;;;;;3.63;2.47;;;;;;;20.41;33.53;99454.25;4992324;28;20396;-75
2022/05/04 11:37:03;;;;;;;3.75;2.95;;;;;;;20.30;35.81;99446.53;4983033;28;20465;-75
2022/05/04 11:39:29;;;;;;;7.93;3.10;;;;;;;20.57;35.01;99446.16;5006110;28;20145;-76
2022/05/04 11:41:57;;;;;;;9.25;3.17;;;;;;;20.66;35.92;99430.75;4994893;28;20080;-76
2022/05/04 11:44:24;;;;;;;6.35;2.92;;;;;;;20.55;34.23;99439.25;5010101;28;20053;-77
2022/05/04 11:46:51;;;;;;;4.28;2.38;;;;;;;20.46;34.52;99434.78;5006528;28;20022;-77
2022/05/04 11:49:18;;;;;;;5.18;3.33;;;;;;;20.65;34.73;99434.81;4993705;28;20112;-77
2022/05/04 11:51:44;;;;;;;14.13;4.78;;;;;;;21.03;35.49;99426.69;4991592;28;20056;-77
2022/05/04 11:54:10;;;;;;;3.67;2.72;;;;;;;20.93;32.43;99424.69;5005810;28;20030;-78
2022/05/04 11:56:36;;;;;;;4.90;2.28;;;;;;;20.87;34.22;99415.75;5000276;28;20030;-77
2022/05/04 11:59:03;;;;;;;5.82;2.92;;;;;;;20.81;33.36;99414.50;5001229;28;20022;-77